sensor_id;sensor_type;location;lat;lon;timestamp;pressure;altitude;pressure_sealevel;temperature;humidity
19676;BME280;39539;52.202;9.876;2023-04-24T00:00:32;99477.84;;;11.12;100.00
19676;BME280;39539;52.202;9.876;2023-04-24T00:02:57;99465.31;;;11.08;100.00
19676;BME280;39539;52.202;9.876;2023-04-24T00:05:24;99472.84;;;10.99;100.00
19676;BME280;39539;52.202;9.876;2023-04-24T00:07:50;99490.34;;;11.12;100.00
19676;BME280;39539;52.202;9.876;2023-04-24T00:10:19;99483.50;;;10.99;100.00
19676;BME280;39539;52.202;9.876;2023-04-24T00:12:44;99478.56;;;10.91;100.00
19676;BME280;39539;52.202;9.876;2023-04-24T00:15:10;99457.34;;;10.79;100.00
19676;BME280;39539;52.202;9.876;2023-04-24T00:17:36;99467.19;;;10.78;100.00
19676;BME280;39539;52.202;9.876;2023-04-24T00:20:02;99456.69;;;10.72;100.00
19676;BME280;39539;52.202;9.876;2023-04-24T00:22:30;99460.06;;;10.67;100.00
19676;BME280;39539;52.202;9.876;2023-04-24T00:24:55;99462.72;;;10.67;100.00
19676;BME280;39539;52.202;9.876;2023-04-24T00:27:21;99462.72;;;10.67;100.00
19676;BME280;39539;52.202;9.876;2023-04-24T00:29:46;99451.63;;;10.59;100.00
19676;BME280;39539;52.202;9.876;2023-04-24T00:32:12;99472.16;;;10.75;100.00
19676;BME280;39539;52.202;9.876;2023-04-24T00:34:37;99474.56;;;10.76;100.00
19676;BME280;39539;52.202;9.876;2023-04-24T00:37:03;99464.06;;;10.70;100.00
19676;BME280;39539;52.202;9.876;2023-04-24T00:39:28;99482.41;;;10.83;100.00
19676;BME280;39539;52.202;9.876;2023-04-24T00:41:54;99489.63;;;10.71;100.00
19676;BME280;39539;52.202;9.876;2023-04-24T00:44:20;99481.31;;;10.67;100.00
19676;BME280;39539;52.202;9.876;2023-04-24T00:46:46;99486.16;;;10.70;100.00
19676;BME280;39539;52.202;9.876;2023-04-24T00:49:12;99492.50;;;10.69;100.00
19676;BME280;39539;52.202;9.876;2023-04-24T00:51:38;99490.72;;;10.46;100.00
19676;BME280;39539;52.202;9.876;2023-04-24T00:54:05;99496.97;;;10.40;100.00
19676;BME280;39539;52.202;9.876;2023-04-24T00:56:31;99496.88;;;10.35;100.00
19676;BME280;39539;52.202;9.876;2023-04-24T00:58:57;99498.16;;;10.32;100.00
19676;BME280;39539;52.202;9.876;2023-04-24T01:01:22;99485.19;;;10.24;100.00
19676;BME280;39539;52.202;9.876;2023-04-24T01:03:51;99472.19;;;10.11;100.00
19676;BME280;39539;52.202;9.876;2023-04-24T01:06:18;99466.63;;;10.12;100.00
19676;BME280;39539;52.202;9.876;2023-04-24T01:08:45;99471.13;;;10.12;100.00
19676;BME280;39539;52.202;9.876;2023-04-24T01:11:11;99465.25;;;10.10;100.00
19676;BME280;39539;52.202;9.876;2023-04-24T01:13:37;99459.59;;;10.06;100.00
19676;BME280;39539;52.202;9.876;2023-04-24T01:16:02;99453.97;;;9.91;100.00
19676;BME280;39539;52.202;9.876;2023-04-24T01:18:28;99468.72;;;9.99;100.00
19676;BME280;39539;52.202;9.876;2023-04-24T01:20:57;99470.69;;;9.92;100.00
19676;BME280;39539;52.202;9.876;2023-04-24T01:23:23;99474.03;;;9.99;100.00
19676;BME280;39539;52.202;9.876;2023-04-24T01:25:49;99470.56;;;9.98;100.00
19676;BME280;39539;52.202;9.876;2023-04-24T01:28:17;99475.88;;;9.98;100.00
19676;BME280;39539;52.202;9.876;2023-04-24T01:30:43;99470.91;;;10.02;100.00
19676;BME280;39539;52.202;9.876;2023-04-24T01:33:08;99487.66;;;10.14;100.00
19676;BME280;39539;52.202;9.876;2023-04-24T01:35:39;99485.00;;;10.14;100.00
19676;BME280;39539;52.202;9.876;2023-04-24T01:38:05;99486.38;;;10.17;100.00
19676;BME280;39539;52.202;9.876;2023-04-24T01:40:32;99477.84;;;10.15;100.00
19676;BME280;39539;52.202;9.876;2023-04-24T01:42:58;99479.91;;;10.12;100.00
19676;BME280;39539;52.202;9.876;2023-04-24T01:45:23;99479.81;;;10.19;100.00
19676;BME280;39539;52.202;9.876;2023-04-24T01:47:50;99486.25;;;10.23;100.00
19676;BME280;39539;52.202;9.876;2023-04-24T01:50:15;99468.63;;;10.05;100.00
19676;BME280;39539;52.202;9.876;2023-04-24T01:52:41;99474.72;;;10.06;100.00
19676;BME280;39539;52.202;9.876;2023-04-24T01:55:07;99475.78;;;10.05;100.00
19676;BME280;39539;52.202;9.876;2023-04-24T01:57:33;99470.47;;;9.93;100.00
19676;BME280;39539;52.202;9.876;2023-04-24T01:59:59;99466.53;;;9.96;100.00
19676;BME280;39539;52.202;9.876;2023-04-24T02:02:25;99452.81;;;9.87;100.00
19676;BME280;39539;52.202;9.876;2023-04-24T02:04:53;99462.97;;;9.90;100.00
19676;BME280;39539;52.202;9.876;2023-04-24T02:07:19;99469.31;;;9.89;100.00
19676;BME280;39539;52.202;9.876;2023-04-24T02:09:45;99456.06;;;9.89;100.00
19676;BME280;39539;52.202;9.876;2023-04-24T02:12:10;99454.44;;;9.76;100.00
19676;BME280;39539;52.202;9.876;2023-04-24T02:14:36;99461.38;;;9.77;100.00
19676;BME280;39539;52.202;9.876;2023-04-24T02:17:01;99459.25;;;9.79;100.00
19676;BME280;39539;52.202;9.876;2023-04-24T02:19:26;99449.25;;;9.70;100.00
19676;BME280;39539;52.202;9.876;2023-04-24T02:21:52;99447.72;;;9.62;100.00
19676;BME280;39539;52.202;9.876;2023-04-24T02:24:17;99457.78;;;9.60;100.00
19676;BME280;39539;52.202;9.876;2023-04-24T02:26:43;99444.28;;;9.38;100.00
19676;BME280;39539;52.202;9.876;2023-04-24T02:29:08;99451.88;;;9.34;100.00
19676;BME280;39539;52.202;9.876;2023-04-24T02:31:33;99462.84;;;9.38;100.00
19676;BME280;39539;52.202;9.876;2023-04-24T02:33:59;99454.88;;;9.26;100.00
19676;BME280;39539;52.202;9.876;2023-04-24T02:36:24;99464.56;;;9.32;100.00
19676;BME280;39539;52.202;9.876;2023-04-24T02:38:50;99461.50;;;9.17;100.00
19676;BME280;39539;52.202;9.876;2023-04-24T02:41:18;99462.34;;;9.17;100.00
19676;BME280;39539;52.202;9.876;2023-04-24T02:43:44;99462.91;;;9.19;100.00
19676;BME280;39539;52.202;9.876;2023-04-24T02:46:10;99460.25;;;9.19;100.00
19676;BME280;39539;52.202;9.876;2023-04-24T02:48:35;99456.59;;;9.20;100.00
19676;BME280;39539;52.202;9.876;2023-04-24T02:51:00;99455.34;;;9.23;100.00
19676;BME280;39539;52.202;9.876;2023-04-24T02:53:26;99457.16;;;9.22;100.00
19676;BME280;39539;52.202;9.876;2023-04-24T02:55:51;99450.84;;;9.24;100.00
19676;BME280;39539;52.202;9.876;2023-04-24T02:58:17;99450.69;;;9.18;100.00
19676;BME280;39539;52.202;9.876;2023-04-24T03:00:42;99458.31;;;9.15;100.00
19676;BME280;39539;52.202;9.876;2023-04-24T03:03:08;99463.59;;;9.15;100.00
19676;BME280;39539;52.202;9.876;2023-04-24T03:05:34;99450.91;;;9.05;100.00
19676;BME280;39539;52.202;9.876;2023-04-24T03:07:59;99448.34;;;8.98;100.00
19676;BME280;39539;52.202;9.876;2023-04-24T03:10:24;99444.75;;;8.93;100.00
19676;BME280;39539;52.202;9.876;2023-04-24T03:12:50;99439.13;;;8.89;100.00
19676;BME280;39539;52.202;9.876;2023-04-24T03:15:15;99450.41;;;8.96;100.00
19676;BME280;39539;52.202;9.876;2023-04-24T03:17:41;99431.63;;;8.86;100.00
19676;BME280;39539;52.202;9.876;2023-04-24T03:20:07;99435.03;;;8.75;100.00
19676;BME280;39539;52.202;9.876;2023-04-24T03:22:33;99442.25;;;8.68;100.00
19676;BME280;39539;52.202;9.876;2023-04-24T03:24:59;99440.50;;;8.62;100.00
19676;BME280;39539;52.202;9.876;2023-04-24T03:27:24;99449.59;;;8.66;100.00
19676;BME280;39539;52.202;9.876;2023-04-24T03:29:50;99432.56;;;8.62;100.00
19676;BME280;39539;52.202;9.876;2023-04-24T03:32:21;99439.91;;;8.60;100.00
19676;BME280;39539;52.202;9.876;2023-04-24T03:34:47;99432.50;;;8.50;100.00
19676;BME280;39539;52.202;9.876;2023-04-24T03:37:12;99447.28;;;8.58;100.00
19676;BME280;39539;52.202;9.876;2023-04-24T03:39:39;99439.50;;;8.44;100.00
19676;BME280;39539;52.202;9.876;2023-04-24T03:42:04;99442.50;;;8.48;100.00
19676;BME280;39539;52.202;9.876;2023-04-24T03:44:30;99446.56;;;8.50;100.00
19676;BME280;39539;52.202;9.876;2023-04-24T03:46:55;99444.22;;;8.42;100.00
19676;BME280;39539;52.202;9.876;2023-04-24T03:49:20;99444.72;;;8.32;100.00
19676;BME280;39539;52.202;9.876;2023-04-24T03:51:47;99437.44;;;8.28;100.00
19676;BME280;39539;52.202;9.876;2023-04-24T03:54:12;99435.84;;;8.27;100.00
19676;BME280;39539;52.202;9.876;2023-04-24T03:56:38;99433.84;;;8.22;100.00
19676;BME280;39539;52.202;9.876;2023-04-24T03:59:04;99444.34;;;8.29;100.00
19676;BME280;39539;52.202;9.876;2023-04-24T04:01:29;99420.91;;;8.14;100.00
19676;BME280;39539;52.202;9.876;2023-04-24T04:03:55;99445.97;;;8.30;100.00
19676;BME280;39539;52.202;9.876;2023-04-24T04:06:22;99438.19;;;8.35;100.00
19676;BME280;39539;52.202;9.876;2023-04-24T04:08:48;99438.75;;;8.37;100.00
19676;BME280;39539;52.202;9.876;2023-04-24T04:11:14;99442.97;;;8.45;100.00
19676;BME280;39539;52.202;9.876;2023-04-24T04:13:40;99437.22;;;8.48;100.00
19676;BME280;39539;52.202;9.876;2023-04-24T04:16:05;99442.22;;;8.56;100.00
19676;BME280;39539;52.202;9.876;2023-04-24T04:18:30;99439.72;;;8.61;100.00
19676;BME280;39539;52.202;9.876;2023-04-24T04:20:56;99440.66;;;8.67;100.00
19676;BME280;39539;52.202;9.876;2023-04-24T04:23:22;99434.22;;;8.74;100.00
19676;BME280;39539;52.202;9.876;2023-04-24T04:25:48;99425.03;;;8.89;100.00
19676;BME280;39539;52.202;9.876;2023-04-24T04:28:13;99435.69;;;9.01;100.00
19676;BME280;39539;52.202;9.876;2023-04-24T04:30:39;99433.59;;;9.03;100.00
19676;BME280;39539;52.202;9.876;2023-04-24T04:33:05;99443.66;;;9.12;100.00
19676;BME280;39539;52.202;9.876;2023-04-24T04:35:30;99439.63;;;9.10;100.00
19676;BME280;39539;52.202;9.876;2023-04-24T04:37:55;99435.00;;;9.17;100.00
19676;BME280;39539;52.202;9.876;2023-04-24T04:40:24;99445.41;;;9.30;100.00
19676;BME280;39539;52.202;9.876;2023-04-24T04:42:49;99445.06;;;9.38;100.00
19676;BME280;39539;52.202;9.876;2023-04-24T04:45:18;99448.19;;;9.47;100.00
19676;BME280;39539;52.202;9.876;2023-04-24T04:47:44;99453.88;;;9.62;100.00
19676;BME280;39539;52.202;9.876;2023-04-24T04:50:09;99461.59;;;9.76;100.00
19676;BME280;39539;52.202;9.876;2023-04-24T04:52:35;99454.53;;;9.93;100.00
19676;BME280;39539;52.202;9.876;2023-04-24T04:55:01;99451.63;;;10.06;100.00
19676;BME280;39539;52.202;9.876;2023-04-24T04:57:26;99433.06;;;10.06;100.00
19676;BME280;39539;52.202;9.876;2023-04-24T04:59:52;99438.59;;;10.28;100.00
19676;BME280;39539;52.202;9.876;2023-04-24T05:02:18;99443.16;;;10.45;100.00
19676;BME280;39539;52.202;9.876;2023-04-24T05:04:44;99448.44;;;10.56;100.00
19676;BME280;39539;52.202;9.876;2023-04-24T05:07:10;99449.19;;;10.69;100.00
19676;BME280;39539;52.202;9.876;2023-04-24T05:09:36;99452.25;;;10.77;100.00
19676;BME280;39539;52.202;9.876;2023-04-24T05:12:01;99434.22;;;10.79;100.00
19676;BME280;39539;52.202;9.876;2023-04-24T05:14:27;99443.44;;;10.89;100.00
19676;BME280;39539;52.202;9.876;2023-04-24T05:16:53;99426.34;;;10.85;100.00
19676;BME280;39539;52.202;9.876;2023-04-24T05:19:18;99437.88;;;10.90;100.00
19676;BME280;39539;52.202;9.876;2023-04-24T05:21:43;99429.00;;;10.85;100.00
19676;BME280;39539;52.202;9.876;2023-04-24T05:24:09;99435.44;;;10.89;100.00
19676;BME280;39539;52.202;9.876;2023-04-24T05:26:34;99443.53;;;10.94;100.00
19676;BME280;39539;52.202;9.876;2023-04-24T05:29:02;99445.47;;;10.98;100.00
19676;BME280;39539;52.202;9.876;2023-04-24T05:31:28;99445.94;;;11.12;100.00
19676;BME280;39539;52.202;9.876;2023-04-24T05:33:53;99443.28;;;11.12;100.00
19676;BME280;39539;52.202;9.876;2023-04-24T05:36:20;99450.56;;;11.34;100.00
19676;BME280;39539;52.202;9.876;2023-04-24T05:38:46;99437.25;;;11.34;100.00
19676;BME280;39539;52.202;9.876;2023-04-24T05:41:11;99446.78;;;11.46;100.00
19676;BME280;39539;52.202;9.876;2023-04-24T05:43:37;99437.47;;;11.49;100.00
19676;BME280;39539;52.202;9.876;2023-04-24T05:46:02;99436.47;;;11.50;100.00
19676;BME280;39539;52.202;9.876;2023-04-24T05:48:28;99442.75;;;11.61;100.00
19676;BME280;39539;52.202;9.876;2023-04-24T05:50:53;99445.38;;;12.17;100.00
19676;BME280;39539;52.202;9.876;2023-04-24T05:53:19;99451.94;;;12.31;100.00
19676;BME280;39539;52.202;9.876;2023-04-24T05:55:45;99453.06;;;12.57;100.00
19676;BME280;39539;52.202;9.876;2023-04-24T05:58:11;99449.31;;;12.80;100.00
19676;BME280;39539;52.202;9.876;2023-04-24T06:00:37;99455.47;;;13.13;100.00
19676;BME280;39539;52.202;9.876;2023-04-24T06:03:04;99461.22;;;13.64;100.00
19676;BME280;39539;52.202;9.876;2023-04-24T06:05:29;99446.25;;;14.58;96.33
19676;BME280;39539;52.202;9.876;2023-04-24T06:07:55;99433.97;;;14.88;91.25
19676;BME280;39539;52.202;9.876;2023-04-24T06:10:21;99429.44;;;14.88;91.56
19676;BME280;39539;52.202;9.876;2023-04-24T06:12:49;99428.56;;;14.57;91.98
19676;BME280;39539;52.202;9.876;2023-04-24T06:15:15;99419.59;;;14.21;93.05
19676;BME280;39539;52.202;9.876;2023-04-24T06:17:40;99432.03;;;13.95;94.61
19676;BME280;39539;52.202;9.876;2023-04-24T06:20:06;99428.16;;;13.65;97.09
19676;BME280;39539;52.202;9.876;2023-04-24T06:22:33;99419.19;;;13.12;100.00
19676;BME280;39539;52.202;9.876;2023-04-24T06:24:59;99427.84;;;12.43;100.00
19676;BME280;39539;52.202;9.876;2023-04-24T06:27:25;99436.41;;;12.01;100.00
19676;BME280;39539;52.202;9.876;2023-04-24T06:29:50;99439.56;;;11.81;100.00
19676;BME280;39539;52.202;9.876;2023-04-24T06:32:22;99429.81;;;11.69;100.00
19676;BME280;39539;52.202;9.876;2023-04-24T06:34:48;99425.94;;;11.60;100.00
19676;BME280;39539;52.202;9.876;2023-04-24T06:37:13;99441.28;;;11.53;100.00
19676;BME280;39539;52.202;9.876;2023-04-24T06:39:39;99435.25;;;11.41;100.00
19676;BME280;39539;52.202;9.876;2023-04-24T06:42:05;99438.31;;;11.33;100.00
19676;BME280;39539;52.202;9.876;2023-04-24T06:44:30;99440.09;;;11.27;100.00
19676;BME280;39539;52.202;9.876;2023-04-24T06:46:55;99451.69;;;11.21;100.00
19676;BME280;39539;52.202;9.876;2023-04-24T06:49:21;99445.16;;;11.12;100.00
19676;BME280;39539;52.202;9.876;2023-04-24T06:51:46;99443.28;;;11.29;100.00
19676;BME280;39539;52.202;9.876;2023-04-24T06:54:12;99447.91;;;11.34;100.00
19676;BME280;39539;52.202;9.876;2023-04-24T06:56:38;99455.16;;;11.38;100.00
19676;BME280;39539;52.202;9.876;2023-04-24T06:59:03;99452.41;;;11.50;100.00
19676;BME280;39539;52.202;9.876;2023-04-24T07:01:29;99450.53;;;11.67;100.00
19676;BME280;39539;52.202;9.876;2023-04-24T07:03:54;99453.97;;;11.85;100.00
19676;BME280;39539;52.202;9.876;2023-04-24T07:06:21;99455.50;;;12.15;100.00
19676;BME280;39539;52.202;9.876;2023-04-24T07:08:49;99454.81;;;12.46;100.00
19676;BME280;39539;52.202;9.876;2023-04-24T07:11:15;99454.78;;;12.68;100.00
19676;BME280;39539;52.202;9.876;2023-04-24T07:13:40;99448.28;;;12.86;98.99
19676;BME280;39539;52.202;9.876;2023-04-24T07:16:07;99455.69;;;13.06;98.85
19676;BME280;39539;52.202;9.876;2023-04-24T07:18:34;99460.34;;;13.21;95.03
19676;BME280;39539;52.202;9.876;2023-04-24T07:20:59;99458.94;;;13.40;95.76
19676;BME280;39539;52.202;9.876;2023-04-24T07:23:25;99460.63;;;13.94;92.96
19676;BME280;39539;52.202;9.876;2023-04-24T07:25:50;99472.31;;;14.30;88.35
19676;BME280;39539;52.202;9.876;2023-04-24T07:28:15;99473.88;;;14.99;86.09
19676;BME280;39539;52.202;9.876;2023-04-24T07:30:43;99468.53;;;15.50;83.72
19676;BME280;39539;52.202;9.876;2023-04-24T07:33:08;99467.47;;;15.46;80.39
19676;BME280;39539;52.202;9.876;2023-04-24T07:35:36;99457.56;;;15.16;80.84
19676;BME280;39539;52.202;9.876;2023-04-24T07:38:01;99453.78;;;14.97;79.64
19676;BME280;39539;52.202;9.876;2023-04-24T07:40:27;99455.94;;;15.10;82.78
19676;BME280;39539;52.202;9.876;2023-04-24T07:42:53;99474.19;;;18.69;73.04
19676;BME280;39539;52.202;9.876;2023-04-24T07:45:18;99422.03;;;23.04;55.26
19676;BME280;39539;52.202;9.876;2023-04-24T07:47:44;99410.56;;;25.73;48.86
19676;BME280;39539;52.202;9.876;2023-04-24T07:50:11;99367.09;;;27.22;44.80
19676;BME280;39539;52.202;9.876;2023-04-24T07:52:37;99358.16;;;28.98;42.01
19676;BME280;39539;52.202;9.876;2023-04-24T07:55:03;99333.69;;;29.28;38.31
19676;BME280;39539;52.202;9.876;2023-04-24T07:57:28;99343.19;;;29.12;39.54
19676;BME280;39539;52.202;9.876;2023-04-24T07:59:54;99329.94;;;28.94;39.44
19676;BME280;39539;52.202;9.876;2023-04-24T08:02:20;99317.50;;;29.66;36.83
19676;BME280;39539;52.202;9.876;2023-04-24T08:04:51;99327.63;;;31.20;34.87
19676;BME280;39539;52.202;9.876;2023-04-24T08:07:18;99310.97;;;31.43;36.75
19676;BME280;39539;52.202;9.876;2023-04-24T08:09:43;99307.69;;;31.33;35.44
19676;BME280;39539;52.202;9.876;2023-04-24T08:12:09;99321.97;;;31.50;34.37
19676;BME280;39539;52.202;9.876;2023-04-24T08:14:34;99315.91;;;30.85;35.73
19676;BME280;39539;52.202;9.876;2023-04-24T08:17:00;99321.63;;;31.10;35.69
19676;BME280;39539;52.202;9.876;2023-04-24T08:19:26;99328.84;;;30.85;35.82
19676;BME280;39539;52.202;9.876;2023-04-24T08:21:51;99335.66;;;30.64;35.46
19676;BME280;39539;52.202;9.876;2023-04-24T08:24:17;99330.03;;;29.93;35.55
19676;BME280;39539;52.202;9.876;2023-04-24T08:26:42;99323.66;;;28.71;36.62
19676;BME280;39539;52.202;9.876;2023-04-24T08:29:08;99322.22;;;28.77;37.61
19676;BME280;39539;52.202;9.876;2023-04-24T08:31:33;99325.50;;;29.55;36.97
19676;BME280;39539;52.202;9.876;2023-04-24T08:33:59;99321.66;;;29.33;34.66
19676;BME280;39539;52.202;9.876;2023-04-24T08:36:26;99321.25;;;28.30;36.07
19676;BME280;39539;52.202;9.876;2023-04-24T08:38:52;99320.69;;;29.22;37.04
19676;BME280;39539;52.202;9.876;2023-04-24T08:41:19;99328.16;;;30.61;35.39
19676;BME280;39539;52.202;9.876;2023-04-24T08:43:47;99317.16;;;31.36;34.37
19676;BME280;39539;52.202;9.876;2023-04-24T08:46:13;99324.66;;;31.98;33.78
19676;BME280;39539;52.202;9.876;2023-04-24T08:48:40;99313.81;;;30.11;34.40
19676;BME280;39539;52.202;9.876;2023-04-24T08:51:09;99302.78;;;27.21;37.55
19676;BME280;39539;52.202;9.876;2023-04-24T08:53:36;99291.00;;;23.98;41.79
19676;BME280;39539;52.202;9.876;2023-04-24T08:56:02;99314.72;;;22.16;43.98
19676;BME280;39539;52.202;9.876;2023-04-24T08:58:29;99305.09;;;20.14;49.11
19676;BME280;39539;52.202;9.876;2023-04-24T09:00:56;99301.47;;;18.81;51.48
19676;BME280;39539;52.202;9.876;2023-04-24T09:03:23;99299.66;;;17.58;53.69
19676;BME280;39539;52.202;9.876;2023-04-24T09:05:49;99320.13;;;17.30;55.18
19676;BME280;39539;52.202;9.876;2023-04-24T09:08:19;99330.25;;;17.09;56.29
19676;BME280;39539;52.202;9.876;2023-04-24T09:10:45;99334.13;;;16.97;59.62
19676;BME280;39539;52.202;9.876;2023-04-24T09:13:11;99351.31;;;17.25;58.29
19676;BME280;39539;52.202;9.876;2023-04-24T09:15:38;99350.00;;;16.94;57.13
19676;BME280;39539;52.202;9.876;2023-04-24T09:18:04;99360.84;;;16.78;57.85
19676;BME280;39539;52.202;9.876;2023-04-24T09:20:30;99374.28;;;17.13;58.10
19676;BME280;39539;52.202;9.876;2023-04-24T09:22:57;99385.84;;;17.90;55.11
19676;BME280;39539;52.202;9.876;2023-04-24T09:25:31;99387.97;;;17.93;54.50
19676;BME280;39539;52.202;9.876;2023-04-24T09:28:00;99381.63;;;17.31;56.88
19676;BME280;39539;52.202;9.876;2023-04-24T09:30:26;99380.25;;;16.65;57.70
19676;BME280;39539;52.202;9.876;2023-04-24T09:33:14;99387.22;;;16.16;58.57
19676;BME280;39539;52.202;9.876;2023-04-24T09:35:50;99399.84;;;16.06;61.97
19676;BME280;39539;52.202;9.876;2023-04-24T09:38:17;99420.88;;;17.27;61.03
19676;BME280;39539;52.202;9.876;2023-04-24T09:40:43;99429.25;;;19.54;54.04
19676;BME280;39539;52.202;9.876;2023-04-24T09:43:12;99419.69;;;20.58;48.90
19676;BME280;39539;52.202;9.876;2023-04-24T09:45:39;99406.56;;;19.88;51.70
19676;BME280;39539;52.202;9.876;2023-04-24T09:48:05;99405.09;;;19.16;53.22
19676;BME280;39539;52.202;9.876;2023-04-24T09:50:34;99384.59;;;18.26;54.11
19676;BME280;39539;52.202;9.876;2023-04-24T09:53:03;99390.28;;;17.76;55.29
19676;BME280;39539;52.202;9.876;2023-04-24T09:55:29;99384.81;;;17.33;56.10
19676;BME280;39539;52.202;9.876;2023-04-24T09:57:56;99391.25;;;17.03;56.71
19676;BME280;39539;52.202;9.876;2023-04-24T10:00:30;99404.53;;;16.84;57.74
19676;BME280;39539;52.202;9.876;2023-04-24T10:05:28;99398.25;;;16.59;58.57
19676;BME280;39539;52.202;9.876;2023-04-24T10:07:56;99411.19;;;16.47;60.26
19676;BME280;39539;52.202;9.876;2023-04-24T10:10:22;99406.25;;;16.10;63.05
19676;BME280;39539;52.202;9.876;2023-04-24T10:12:48;99385.53;;;15.25;61.70
19676;BME280;39539;52.202;9.876;2023-04-24T10:15:15;99398.66;;;14.75;63.80
19676;BME280;39539;52.202;9.876;2023-04-24T10:17:44;99404.97;;;14.38;65.09
19676;BME280;39539;52.202;9.876;2023-04-24T10:20:10;99420.97;;;14.28;67.50
19676;BME280;39539;52.202;9.876;2023-04-24T10:22:36;99404.47;;;13.84;68.16
19676;BME280;39539;52.202;9.876;2023-04-24T10:25:03;99410.88;;;13.40;70.04
19676;BME280;39539;52.202;9.876;2023-04-24T10:27:31;99435.53;;;13.53;70.99
19676;BME280;39539;52.202;9.876;2023-04-24T10:30:00;99434.22;;;13.55;72.54
19676;BME280;39539;52.202;9.876;2023-04-24T10:32:27;99446.19;;;13.90;71.05
19676;BME280;39539;52.202;9.876;2023-04-24T10:34:54;99460.47;;;14.16;68.98
19676;BME280;39539;52.202;9.876;2023-04-24T10:37:22;99451.22;;;13.86;67.71
19676;BME280;39539;52.202;9.876;2023-04-24T10:39:48;99452.84;;;13.87;69.60
19676;BME280;39539;52.202;9.876;2023-04-24T10:42:16;99462.84;;;14.12;70.21
19676;BME280;39539;52.202;9.876;2023-04-24T10:44:41;99476.09;;;14.45;69.31
19676;BME280;39539;52.202;9.876;2023-04-24T10:47:17;99469.31;;;15.00;67.57
19676;BME280;39539;52.202;9.876;2023-04-24T10:49:42;99478.72;;;15.64;66.55
19676;BME280;39539;52.202;9.876;2023-04-24T10:52:08;99471.63;;;16.24;62.35
19676;BME280;39539;52.202;9.876;2023-04-24T10:54:36;99463.91;;;16.12;59.69
19676;BME280;39539;52.202;9.876;2023-04-24T10:59:45;99449.81;;;15.15;61.61
19676;BME280;39539;52.202;9.876;2023-04-24T11:02:10;99442.13;;;14.40;66.96
19676;BME280;39539;52.202;9.876;2023-04-24T11:04:36;99441.38;;;13.50;70.68
19676;BME280;39539;52.202;9.876;2023-04-24T11:07:05;99457.59;;;13.11;77.64
19676;BME280;39539;52.202;9.876;2023-04-24T11:09:31;99456.81;;;12.83;85.96
19676;BME280;39539;52.202;9.876;2023-04-24T11:12:10;99467.63;;;12.71;86.73
19676;BME280;39539;52.202;9.876;2023-04-24T11:15:00;99496.06;;;13.79;85.46
19676;BME280;39539;52.202;9.876;2023-04-24T11:17:35;99493.91;;;14.92;80.70
19676;BME280;39539;52.202;9.876;2023-04-24T11:20:17;99487.28;;;15.86;75.11
19676;BME280;39539;52.202;9.876;2023-04-24T11:22:43;99485.47;;;16.52;72.34
19676;BME280;39539;52.202;9.876;2023-04-24T11:25:09;99471.84;;;16.33;71.89
19676;BME280;39539;52.202;9.876;2023-04-24T11:27:44;99462.91;;;15.83;66.49
19676;BME280;39539;52.202;9.876;2023-04-24T11:30:20;99462.31;;;16.01;67.08
19676;BME280;39539;52.202;9.876;2023-04-24T11:32:51;99452.09;;;16.13;66.28
19676;BME280;39539;52.202;9.876;2023-04-24T11:35:22;99458.22;;;16.24;65.06
19676;BME280;39539;52.202;9.876;2023-04-24T11:37:56;99463.88;;;16.17;65.41
19676;BME280;39539;52.202;9.876;2023-04-24T11:40:22;99474.53;;;16.38;65.72
19676;BME280;39539;52.202;9.876;2023-04-24T11:42:51;99465.72;;;16.27;65.68
19676;BME280;39539;52.202;9.876;2023-04-24T11:45:28;99459.69;;;15.70;67.42
19676;BME280;39539;52.202;9.876;2023-04-24T11:47:54;99469.88;;;15.48;69.12
19676;BME280;39539;52.202;9.876;2023-04-24T11:50:23;99479.78;;;15.42;69.91
19676;BME280;39539;52.202;9.876;2023-04-24T11:52:50;99490.78;;;15.71;67.56
19676;BME280;39539;52.202;9.876;2023-04-24T11:57:53;99481.63;;;16.03;70.45
19676;BME280;39539;52.202;9.876;2023-04-24T12:00:21;99498.91;;;16.42;69.39
19676;BME280;39539;52.202;9.876;2023-04-24T12:02:47;99507.28;;;16.95;67.69
19676;BME280;39539;52.202;9.876;2023-04-24T12:05:24;99504.69;;;16.79;65.10
19676;BME280;39539;52.202;9.876;2023-04-24T12:07:53;99500.09;;;16.85;65.49
19676;BME280;39539;52.202;9.876;2023-04-24T12:10:23;99490.56;;;16.53;63.05
19676;BME280;39539;52.202;9.876;2023-04-24T12:12:49;99481.53;;;16.34;65.00
19676;BME280;39539;52.202;9.876;2023-04-24T12:15:19;99486.97;;;16.03;65.63
19676;BME280;39539;52.202;9.876;2023-04-24T12:17:45;99480.06;;;15.20;69.53
19676;BME280;39539;52.202;9.876;2023-04-24T12:20:11;99501.44;;;15.10;69.33
19676;BME280;39539;52.202;9.876;2023-04-24T12:22:57;99499.25;;;14.19;74.83
19676;BME280;39539;52.202;9.876;2023-04-24T12:25:25;99509.06;;;13.65;76.27
19676;BME280;39539;52.202;9.876;2023-04-24T12:30:32;99522.16;;;12.86;80.75
19676;BME280;39539;52.202;9.876;2023-04-24T12:32:59;99532.34;;;12.67;81.23
19676;BME280;39539;52.202;9.876;2023-04-24T12:35:27;99535.50;;;12.64;83.17
19676;BME280;39539;52.202;9.876;2023-04-24T12:37:53;99526.88;;;12.56;84.51
19676;BME280;39539;52.202;9.876;2023-04-24T12:40:20;99546.53;;;12.94;83.81
19676;BME280;39539;52.202;9.876;2023-04-24T12:42:47;99563.88;;;13.73;81.76
19676;BME280;39539;52.202;9.876;2023-04-24T12:45:14;99562.59;;;14.66;76.40
19676;BME280;39539;52.202;9.876;2023-04-24T12:47:41;99564.13;;;15.24;74.07
19676;BME280;39539;52.202;9.876;2023-04-24T12:50:12;99570.56;;;15.39;73.24
19676;BME280;39539;52.202;9.876;2023-04-24T12:52:38;99563.59;;;15.33;70.03
19676;BME280;39539;52.202;9.876;2023-04-24T12:55:05;99569.78;;;15.54;70.00
19676;BME280;39539;52.202;9.876;2023-04-24T12:57:34;99569.53;;;15.60;66.51
19676;BME280;39539;52.202;9.876;2023-04-24T13:00:00;99562.84;;;15.73;67.06
19676;BME280;39539;52.202;9.876;2023-04-24T13:02:28;99569.84;;;15.74;66.48
19676;BME280;39539;52.202;9.876;2023-04-24T13:04:54;99561.50;;;15.55;68.65